sensor_id;sensor_type;location;lat;lon;timestamp;pressure;altitude;pressure_sealevel;temperature;humidity
68199;BME280;55021;51.554;17.044;2023-04-03T00:10:15;101588.50;;;1.70;72.52
68199;BME280;55021;51.554;17.044;2023-04-03T00:25:18;101554.25;;;1.02;74.57
68199;BME280;55021;51.554;17.044;2023-04-03T00:40:22;101598.84;;;1.19;75.73
68199;BME280;55021;51.554;17.044;2023-04-03T00:55:25;101597.34;;;0.92;77.23
68199;BME280;55021;51.554;17.044;2023-04-03T01:10:29;101608.97;;;1.31;76.34
68199;BME280;55021;51.554;17.044;2023-04-03T01:25:31;101621.41;;;0.90;78.82
68199;BME280;55021;51.554;17.044;2023-04-03T01:40:34;101607.94;;;0.29;81.06
68199;BME280;55021;51.554;17.044;2023-04-03T01:55:36;101646.53;;;0.63;80.42
68199;BME280;55021;51.554;17.044;2023-04-03T02:10:39;101605.16;;;0.11;82.09
68199;BME280;55021;51.554;17.044;2023-04-03T02:25:42;101599.38;;;-0.00;82.64
68199;BME280;55021;51.554;17.044;2023-04-03T02:40:44;101680.31;;;0.61;81.67
68199;BME280;55021;51.554;17.044;2023-04-03T02:55:47;101651.16;;;-0.10;83.27
68199;BME280;55021;51.554;17.044;2023-04-03T03:10:49;101663.75;;;0.31;82.30
68199;BME280;55021;51.554;17.044;2023-04-03T03:25:56;101663.06;;;0.03;83.34
68199;BME280;55021;51.554;17.044;2023-04-03T03:40:59;101701.59;;;0.16;83.05
68199;BME280;55021;51.554;17.044;2023-04-03T03:56:01;101654.91;;;-0.39;84.86
68199;BME280;55021;51.554;17.044;2023-04-03T04:11:04;101704.63;;;-0.18;85.57
68199;BME280;55021;51.554;17.044;2023-04-03T04:26:06;101719.22;;;-0.05;84.81
68199;BME280;55021;51.554;17.044;2023-04-03T04:41:09;101609.97;;;-0.95;85.89
68199;BME280;55021;51.554;17.044;2023-04-03T04:56:11;101739.78;;;-0.08;84.61
68199;BME280;55021;51.554;17.044;2023-04-03T05:11:14;101730.56;;;0.00;83.76
68199;BME280;55021;51.554;17.044;2023-04-03T05:26:16;101748.25;;;0.01;84.96
68199;BME280;55021;51.554;17.044;2023-04-03T05:41:19;101731.91;;;0.35;82.27
68199;BME280;55021;51.554;17.044;2023-04-03T05:56:22;101772.13;;;0.51;83.14
68199;BME280;55021;51.554;17.044;2023-04-03T06:11:24;101768.97;;;1.08;80.75
68199;BME280;55021;51.554;17.044;2023-04-03T06:26:28;101741.19;;;1.75;77.75
68199;BME280;55021;51.554;17.044;2023-04-03T06:41:31;101672.94;;;0.67;77.63
68199;BME280;55021;51.554;17.044;2023-04-03T06:56:34;101824.34;;;1.65;75.79
68199;BME280;55021;51.554;17.044;2023-04-03T07:11:37;101829.06;;;2.20;72.58
68199;BME280;55021;51.554;17.044;2023-04-03T07:26:40;101832.28;;;2.86;69.43
68199;BME280;55021;51.554;17.044;2023-04-03T07:41:43;101848.19;;;2.50;68.75
68199;BME280;55021;51.554;17.044;2023-04-03T07:56:46;101847.44;;;3.04;69.41
68199;BME280;55021;51.554;17.044;2023-04-03T08:11:49;101843.59;;;3.47;60.47
68199;BME280;55021;51.554;17.044;2023-04-03T08:26:52;101845.69;;;3.40;58.99
68199;BME280;55021;51.554;17.044;2023-04-03T08:41:56;101853.28;;;3.12;58.05
68199;BME280;55021;51.554;17.044;2023-04-03T08:57:02;101849.53;;;3.35;60.60
68199;BME280;55021;51.554;17.044;2023-04-03T09:12:15;101850.84;;;3.62;57.58
68199;BME280;55021;51.554;17.044;2023-04-03T09:27:19;101829.63;;;4.60;53.67
68199;BME280;55021;51.554;17.044;2023-04-03T09:42:23;101854.69;;;4.59;52.29
68199;BME280;55021;51.554;17.044;2023-04-03T09:57:32;101818.09;;;5.06;51.96
68199;BME280;55021;51.554;17.044;2023-04-03T10:12:35;101841.97;;;4.47;48.55
68199;BME280;55021;51.554;17.044;2023-04-03T10:27:44;101838.03;;;5.18;46.65
68199;BME280;55021;51.554;17.044;2023-04-03T10:42:55;101821.38;;;5.12;48.59
68199;BME280;55021;51.554;17.044;2023-04-03T10:58:02;101795.03;;;4.56;45.61
68199;BME280;55021;51.554;17.044;2023-04-03T11:13:12;101795.03;;;6.67;48.53
68199;BME280;55021;51.554;17.044;2023-04-03T11:28:16;101806.81;;;5.62;47.49
68199;BME280;55021;51.554;17.044;2023-04-03T11:43:27;101794.09;;;6.68;44.27
68199;BME280;55021;51.554;17.044;2023-04-03T11:58:31;101792.59;;;5.90;45.42
68199;BME280;55021;51.554;17.044;2023-04-03T12:13:34;101753.00;;;6.66;42.05
68199;BME280;55021;51.554;17.044;2023-04-03T12:28:39;101762.81;;;6.53;42.78
68199;BME280;55021;51.554;17.044;2023-04-03T12:44:00;101730.22;;;6.01;45.59
68199;BME280;55021;51.554;17.044;2023-04-03T12:59:21;101761.97;;;6.08;44.62
68199;BME280;55021;51.554;17.044;2023-04-03T13:14:25;101743.59;;;5.12;42.31
68199;BME280;55021;51.554;17.044;2023-04-03T13:29:32;101708.78;;;7.11;42.02
68199;BME280;55021;51.554;17.044;2023-04-03T13:44:36;101751.41;;;5.61;40.48
68199;BME280;55021;51.554;17.044;2023-04-03T13:59:39;101750.88;;;5.85;42.39
68199;BME280;55021;51.554;17.044;2023-04-03T14:14:42;101752.50;;;5.73;41.84
68199;BME280;55021;51.554;17.044;2023-04-03T14:29:47;101713.78;;;5.47;44.14
68199;BME280;55021;51.554;17.044;2023-04-03T14:44:50;101758.44;;;5.33;44.88
68199;BME280;55021;51.554;17.044;2023-04-03T14:59:52;101761.31;;;5.45;44.62
68199;BME280;55021;51.554;17.044;2023-04-03T15:14:55;101743.78;;;4.93;48.04
68199;BME280;55021;51.554;17.044;2023-04-03T15:29:58;101699.34;;;4.42;49.31
68199;BME280;55021;51.554;17.044;2023-04-03T15:45:01;101697.53;;;4.58;45.79
68199;BME280;55021;51.554;17.044;2023-04-03T16:00:04;101778.03;;;5.03;47.24
68199;BME280;55021;51.554;17.044;2023-04-03T16:15:07;101718.31;;;4.37;48.05
68199;BME280;55021;51.554;17.044;2023-04-03T16:30:11;101786.28;;;5.16;46.91
68199;BME280;55021;51.554;17.044;2023-04-03T16:45:15;101770.69;;;4.76;47.84
68199;BME280;55021;51.554;17.044;2023-04-03T17:00:17;101732.72;;;4.68;48.60
68199;BME280;55021;51.554;17.044;2023-04-03T17:15:20;101785.53;;;4.66;48.42
68199;BME280;55021;51.554;17.044;2023-04-03T17:30:23;101795.31;;;4.67;49.62
68199;BME280;55021;51.554;17.044;2023-04-03T17:45:26;101802.34;;;4.69;50.45
68199;BME280;55021;51.554;17.044;2023-04-03T18:00:29;101713.94;;;4.36;50.20
68199;BME280;55021;51.554;17.044;2023-04-03T18:15:32;101804.94;;;4.21;50.73
68199;BME280;55021;51.554;17.044;2023-04-03T18:30:35;101779.75;;;4.08;50.93
68199;BME280;55021;51.554;17.044;2023-04-03T18:45:39;101732.19;;;4.13;50.86
68199;BME280;55021;51.554;17.044;2023-04-03T19:00:42;101788.78;;;4.39;51.51
68199;BME280;55021;51.554;17.044;2023-04-03T19:15:45;101766.50;;;4.22;50.91
68199;BME280;55021;51.554;17.044;2023-04-03T19:30:47;101774.09;;;3.45;53.56
68199;BME280;55021;51.554;17.044;2023-04-03T19:45:50;101828.91;;;3.72;55.51
68199;BME280;55021;51.554;17.044;2023-04-03T20:00:54;101821.97;;;3.68;56.05
68199;BME280;55021;51.554;17.044;2023-04-03T20:16:00;101839.69;;;3.71;55.21
68199;BME280;55021;51.554;17.044;2023-04-03T20:31:03;101817.75;;;3.10;55.38
68199;BME280;55021;51.554;17.044;2023-04-03T20:46:05;101840.09;;;3.45;55.68
68199;BME280;55021;51.554;17.044;2023-04-03T21:01:20;101837.63;;;3.04;56.81
68199;BME280;55021;51.554;17.044;2023-04-03T21:31:51;101841.19;;;2.47;59.24
68199;BME280;55021;51.554;17.044;2023-04-03T21:46:53;101785.13;;;1.46;61.66
68199;BME280;55021;51.554;17.044;2023-04-03T22:01:56;101835.91;;;1.22;63.73
68199;BME280;55021;51.554;17.044;2023-04-03T22:16:58;101809.06;;;1.05;61.55
68199;BME280;55021;51.554;17.044;2023-04-03T22:32:01;101849.78;;;1.73;60.80
68199;BME280;55021;51.554;17.044;2023-04-03T22:47:03;101840.59;;;1.37;61.98
68199;BME280;55021;51.554;17.044;2023-04-03T23:02:05;101852.97;;;1.81;61.65
68199;BME280;55021;51.554;17.044;2023-04-03T23:17:08;101839.88;;;1.33;62.72
68199;BME280;55021;51.554;17.044;2023-04-03T23:32:10;101858.34;;;1.60;62.46
68199;BME280;55021;51.554;17.044;2023-04-03T23:47:13;101794.94;;;0.79;63.79
